PWSweather.com
Personal Weather Stations
Station Observations
GEELONGWX1
Bell Post Hill, GeelongAU

Bell Post HillGeelongAU

Lat: -38.101, Lon: 144.326

Elevation: 204

Station Type: Davis Vantage Pro2

http://www.geelongweather.com

High Low Average
Temperature 53.3°F11.8°F 45.0°F7.2°F 49.5°F9.7°F
Dew Point 45.1°F7.3°F 36.8°F2.7°F 41.8°F5.4°F
Winds 8.1 mph SW13.0 mph SW Calm Calm 1.3 mph 2.1 mph
Wind Gusts 15.0 mph24.1 mph -- 3.3 mph5.3 mph
Humidity 82% 69% 75%
Pressure 30.32 in1026.80 in 30.21 in1023.00 in -
Precipitation 0.02 in0.50 in - -
Hour Temp Dew Point Humidity Winds Wind Gusts Pressure Precip Precip Rate Daily Precip Total
12:00 AM 45.0°F7.2°C 37.2°F2.9°C 74% Calm Calm -- 30.32 in1026.8 mb - 0.00 in0.0 mm 0.00 in0.0 mm
12:10 AM 45.1°F7.3°C 37.0°F2.8°C 73% Calm Calm -- 30.32 in1026.8 mb - 0.00 in0.0 mm 0.00 in0.0 mm
12:20 AM 45.2°F7.3°C 37.1°F2.8°C 73% Calm Calm -- 30.31 in1026.4 mb - 0.00 in0.0 mm 0.00 in0.0 mm
12:30 AM 45.3°F7.4°C 37.2°F2.9°C 73% Calm Calm -- 30.31 in1026.4 mb - 0.00 in0.0 mm 0.00 in0.0 mm
12:40 AM 45.3°F7.4°C 36.8°F2.7°C 72% Calm Calm -- 30.30 in1026.1 mb - 0.00 in0.0 mm 0.00 in0.0 mm
12:50 AM 45.3°F7.4°C 36.8°F2.7°C 72% 2.3 mph SW3.7 kmh SW 3.5 mph5.6 kmh 30.30 in1026.1 mb - 0.00 in0.0 mm 0.00 in0.0 mm
01:00 AM 45.3°F7.4°C 36.8°F2.7°C 72% Calm Calm -- 30.30 in1026.1 mb - 0.00 in0.0 mm 0.00 in0.0 mm
01:10 AM 45.3°F7.4°C 36.8°F2.7°C 72% 1.2 mph SW1.9 kmh SW 3.5 mph5.6 kmh 30.29 in1025.7 mb - 0.00 in0.0 mm 0.00 in0.0 mm
01:20 AM 45.4°F7.4°C 36.9°F2.7°C 72% 1.2 mph SW1.9 kmh SW 1.2 mph1.9 kmh 30.29 in1025.7 mb - 0.00 in0.0 mm 0.00 in0.0 mm
01:30 AM 45.5°F7.5°C 37.0°F2.8°C 72% 3.5 mph SW5.6 kmh SW 4.6 mph7.4 kmh 30.29 in1025.7 mb - 0.00 in0.0 mm 0.00 in0.0 mm
01:40 AM 45.8°F7.7°C 36.9°F2.7°C 71% 4.6 mph SW7.4 kmh SW 5.8 mph9.3 kmh 30.29 in1025.7 mb - 0.00 in0.0 mm 0.00 in0.0 mm
01:50 AM 46.0°F7.8°C 37.1°F2.8°C 71% 2.3 mph SW3.7 kmh SW 4.6 mph7.4 kmh 30.29 in1025.7 mb - 0.00 in0.0 mm 0.00 in0.0 mm
02:00 AM 46.2°F7.9°C 37.3°F2.9°C 71% 4.6 mph SW7.4 kmh SW 6.9 mph11.1 kmh 30.28 in1025.4 mb - 0.00 in0.0 mm 0.00 in0.0 mm
02:10 AM 46.3°F7.9°C 37.0°F2.8°C 70% 2.3 mph WSW3.7 kmh WSW 9.2 mph14.8 kmh 30.28 in1025.4 mb - 0.00 in0.0 mm 0.00 in0.0 mm
02:20 AM 46.4°F8.0°C 37.1°F2.8°C 70% 3.5 mph SW5.6 kmh SW 6.9 mph11.1 kmh 30.28 in1025.4 mb - 0.00 in0.0 mm 0.00 in0.0 mm
02:30 AM 46.5°F8.1°C 37.2°F2.9°C 70% 1.2 mph SW1.9 kmh SW 1.2 mph1.9 kmh 30.28 in1025.4 mb - 0.00 in0.0 mm 0.00 in0.0 mm
02:40 AM 46.5°F8.1°C 37.2°F2.9°C 70% Calm Calm -- 30.27 in1025.1 mb - 0.00 in0.0 mm 0.00 in0.0 mm
02:50 AM 46.5°F8.1°C 37.2°F2.9°C 70% 3.5 mph SW5.6 kmh SW 3.5 mph5.6 kmh 30.27 in1025.1 mb - 0.00 in0.0 mm 0.00 in0.0 mm
03:00 AM 46.4°F8.0°C 37.2°F2.9°C 70% Calm Calm -- 30.26 in1024.7 mb - 0.00 in0.0 mm 0.00 in0.0 mm
03:10 AM 46.3°F7.9°C 37.0°F2.8°C 70% Calm Calm 2.3 mph3.7 kmh 30.26 in1024.7 mb - 0.00 in0.0 mm 0.00 in0.0 mm
03:20 AM 46.2°F7.9°C 37.3°F2.9°C 71% Calm Calm 4.6 mph7.4 kmh 30.25 in1024.4 mb - 0.00 in0.0 mm 0.00 in0.0 mm
03:30 AM 46.2°F7.9°C 37.3°F2.9°C 71% 1.2 mph WSW1.9 kmh WSW 3.5 mph5.6 kmh 30.25 in1024.4 mb - 0.00 in0.0 mm 0.00 in0.0 mm
03:40 AM 46.2°F7.9°C 37.3°F2.9°C 71% 1.2 mph S1.9 kmh S 3.5 mph5.6 kmh 30.26 in1024.7 mb - 0.00 in0.0 mm 0.00 in0.0 mm
03:50 AM 46.1°F7.8°C 37.2°F2.9°C 71% Calm Calm -- 30.25 in1024.4 mb - 0.00 in0.0 mm 0.00 in0.0 mm
04:00 AM 46.2°F7.9°C 37.3°F2.9°C 71% 3.5 mph WSW5.6 kmh WSW 5.8 mph9.3 kmh 30.25 in1024.4 mb - 0.00 in0.0 mm 0.00 in0.0 mm
04:10 AM 46.4°F8.0°C 37.5°F3.1°C 71% 3.5 mph SW5.6 kmh SW 6.9 mph11.1 kmh 30.25 in1024.4 mb - 0.00 in0.0 mm 0.00 in0.0 mm
04:20 AM 46.6°F8.1°C 37.7°F3.2°C 71% Calm Calm -- 30.25 in1024.4 mb - 0.00 in0.0 mm 0.00 in0.0 mm
04:30 AM 46.7°F8.2°C 37.8°F3.2°C 71% 4.6 mph SW7.4 kmh SW 10.4 mph16.7 kmh 30.24 in1024.0 mb - 0.00 in0.0 mm 0.00 in0.0 mm
04:40 AM 47.1°F8.4°C 37.8°F3.2°C 70% 5.8 mph SW9.3 kmh SW 9.2 mph14.8 kmh 30.25 in1024.4 mb - 0.00 in0.0 mm 0.00 in0.0 mm
04:50 AM 47.2°F8.4°C 37.9°F3.3°C 70% 4.6 mph SW7.4 kmh SW 8.1 mph13.0 kmh 30.24 in1024.0 mb - 0.00 in0.0 mm 0.00 in0.0 mm
05:00 AM 47.3°F8.5°C 38.0°F3.3°C 70% 6.9 mph SW11.1 kmh SW 15.0 mph24.1 kmh 30.24 in1024.0 mb - 0.00 in0.0 mm 0.00 in0.0 mm
05:10 AM 47.4°F8.6°C 37.7°F3.2°C 69% 3.5 mph SW5.6 kmh SW 6.9 mph11.1 kmh 30.24 in1024.0 mb - 0.00 in0.0 mm 0.00 in0.0 mm
05:20 AM 47.5°F8.6°C 37.8°F3.2°C 69% 2.3 mph SW3.7 kmh SW 6.9 mph11.1 kmh 30.25 in1024.4 mb - 0.00 in0.0 mm 0.00 in0.0 mm
05:30 AM 47.5°F8.6°C 37.9°F3.3°C 69% 3.5 mph WSW5.6 kmh WSW 5.8 mph9.3 kmh 30.25 in1024.4 mb - 0.00 in0.0 mm 0.00 in0.0 mm
05:40 AM 47.6°F8.7°C 37.9°F3.3°C 69% 2.3 mph SW3.7 kmh SW 5.8 mph9.3 kmh 30.25 in1024.4 mb - 0.00 in0.0 mm 0.00 in0.0 mm
05:50 AM 47.7°F8.7°C 38.0°F3.3°C 69% 2.3 mph SW3.7 kmh SW 6.9 mph11.1 kmh 30.25 in1024.4 mb - 0.00 in0.0 mm 0.00 in0.0 mm
06:00 AM 47.8°F8.8°C 38.4°F3.6°C 70% Calm Calm -- 30.25 in1024.4 mb - 0.00 in0.0 mm 0.00 in0.0 mm
06:10 AM 47.8°F8.8°C 38.5°F3.6°C 70% 3.5 mph WSW5.6 kmh WSW 5.8 mph9.3 kmh 30.25 in1024.4 mb - 0.00 in0.0 mm 0.00 in0.0 mm
06:20 AM 47.9°F8.8°C 38.6°F3.7°C 70% 3.5 mph SW5.6 kmh SW 5.8 mph9.3 kmh 30.25 in1024.4 mb - 0.00 in0.0 mm 0.00 in0.0 mm
06:30 AM 48.0°F8.9°C 38.7°F3.7°C 70% Calm Calm -- 30.26 in1024.7 mb - 0.00 in0.0 mm 0.00 in0.0 mm
06:40 AM 48.1°F8.9°C 39.1°F3.9°C 71% 1.2 mph WSW1.9 kmh WSW 4.6 mph7.4 kmh 30.26 in1024.7 mb - 0.00 in0.0 mm 0.00 in0.0 mm
06:50 AM 48.1°F8.9°C 38.8°F3.8°C 70% Calm Calm -- 30.26 in1024.7 mb - 0.00 in0.0 mm 0.00 in0.0 mm
07:00 AM 48.1°F8.9°C 39.1°F3.9°C 71% Calm Calm 3.5 mph5.6 kmh 30.25 in1024.4 mb - 0.00 in0.0 mm 0.00 in0.0 mm
07:10 AM 48.2°F9.0°C 39.3°F4.1°C 71% Calm Calm -- 30.25 in1024.4 mb - 0.00 in0.0 mm 0.00 in0.0 mm
07:20 AM 48.3°F9.1°C 39.3°F4.1°C 71% Calm Calm -- 30.25 in1024.4 mb - 0.00 in0.0 mm 0.00 in0.0 mm
07:30 AM 48.4°F9.1°C 39.8°F4.3°C 72% 4.6 mph SW7.4 kmh SW 4.6 mph7.4 kmh 30.26 in1024.7 mb - 0.00 in0.0 mm 0.00 in0.0 mm
07:40 AM 48.6°F9.2°C 40.0°F4.4°C 72% 5.8 mph SW9.3 kmh SW 11.5 mph18.5 kmh 30.25 in1024.4 mb - 0.00 in0.0 mm 0.00 in0.0 mm
07:50 AM 48.7°F9.3°C 40.1°F4.5°C 72% 4.6 mph SW7.4 kmh SW 6.9 mph11.1 kmh 30.26 in1024.7 mb - 0.00 in0.0 mm 0.00 in0.0 mm
08:00 AM 48.7°F9.3°C 40.1°F4.5°C 72% 1.2 mph SW1.9 kmh SW -- 30.27 in1025.1 mb - 0.00 in0.0 mm 0.00 in0.0 mm
08:10 AM 48.7°F9.3°C 40.1°F4.5°C 72% 3.5 mph SW5.6 kmh SW 5.8 mph9.3 kmh 30.26 in1024.7 mb - 0.00 in0.0 mm 0.00 in0.0 mm
08:20 AM 48.6°F9.2°C 40.0°F4.4°C 72% 3.5 mph SW5.6 kmh SW 6.9 mph11.1 kmh 30.26 in1024.7 mb - 0.00 in0.0 mm 0.00 in0.0 mm
08:30 AM 48.5°F9.2°C 40.2°F4.6°C 73% 3.5 mph SW5.6 kmh SW 10.4 mph16.7 kmh 30.26 in1024.7 mb - 0.00 in0.0 mm 0.00 in0.0 mm
08:40 AM 48.6°F9.2°C 40.7°F4.8°C 74% 1.2 mph WSW1.9 kmh WSW 5.8 mph9.3 kmh 30.26 in1024.7 mb - 0.00 in0.0 mm 0.00 in0.0 mm
08:50 AM 48.7°F9.3°C 40.8°F4.9°C 74% Calm Calm -- 30.26 in1024.7 mb - 0.00 in0.0 mm 0.00 in0.0 mm
09:00 AM 48.8°F9.3°C 40.9°F4.9°C 74% Calm Calm -- 30.27 in1025.1 mb - 0.00 in0.0 mm 0.00 in0.0 mm
09:10 AM 48.9°F9.4°C 41.3°F5.2°C 75% Calm Calm 4.6 mph7.4 kmh 30.27 in1025.1 mb - 0.00 in0.0 mm 0.00 in0.0 mm
09:20 AM 49.0°F9.4°C 41.8°F5.4°C 76% Calm Calm 4.6 mph7.4 kmh 30.26 in1024.7 mb - 0.00 in0.0 mm 0.00 in0.0 mm
09:30 AM 49.2°F9.6°C 42.3°F5.7°C 77% Calm Calm -- 30.27 in1025.1 mb - 0.00 in0.0 mm 0.00 in0.0 mm
09:40 AM 49.3°F9.6°C 42.7°F5.9°C 78% Calm Calm 5.8 mph9.3 kmh 30.26 in1024.7 mb - 0.00 in0.0 mm 0.00 in0.0 mm
09:50 AM 49.4°F9.7°C 42.8°F6.0°C 78% 1.2 mph SW1.9 kmh SW 3.5 mph5.6 kmh 30.26 in1024.7 mb - 0.00 in0.0 mm 0.00 in0.0 mm
10:00 AM 49.7°F9.8°C 43.5°F6.4°C 79% 2.3 mph SW3.7 kmh SW 4.6 mph7.4 kmh 30.26 in1024.7 mb - 0.00 in0.0 mm 0.00 in0.0 mm
10:10 AM 49.9°F9.9°C 44.0°F6.7°C 80% 1.2 mph S1.9 kmh S 6.9 mph11.1 kmh 30.27 in1025.1 mb - 0.01 in0.3 mm 0.01 in0.3 mm
10:20 AM 49.6°F9.8°C 44.0°F6.7°C 81% Calm Calm -- 30.26 in1024.7 mb - 0.00 in0.0 mm 0.01 in0.3 mm
10:30 AM 49.4°F9.7°C 43.8°F6.6°C 81% 1.2 mph SW1.9 kmh SW 5.8 mph9.3 kmh 30.26 in1024.7 mb - 0.00 in0.0 mm 0.01 in0.3 mm
10:40 AM 49.3°F9.6°C 43.7°F6.5°C 81% 1.2 mph S1.9 kmh S 5.8 mph9.3 kmh 30.26 in1024.7 mb - 0.00 in0.0 mm 0.01 in0.3 mm
10:50 AM 49.4°F9.7°C 44.1°F6.7°C 82% 5.8 mph SW9.3 kmh SW 10.4 mph16.7 kmh 30.26 in1024.7 mb - 0.00 in0.0 mm 0.01 in0.3 mm
11:00 AM 49.5°F9.7°C 44.2°F6.8°C 82% Calm Calm 3.5 mph5.6 kmh 30.26 in1024.7 mb - 0.00 in0.0 mm 0.01 in0.3 mm
11:10 AM 49.6°F9.8°C 44.3°F6.8°C 82% 1.2 mph SW1.9 kmh SW 3.5 mph5.6 kmh 30.26 in1024.7 mb - 0.00 in0.0 mm 0.01 in0.3 mm
11:20 AM 49.9°F9.9°C 44.3°F6.8°C 81% 2.3 mph SW3.7 kmh SW 8.1 mph13.0 kmh 30.25 in1024.4 mb - 0.00 in0.0 mm 0.01 in0.3 mm
11:30 AM 50.2°F10.1°C 44.6°F7.0°C 81% 4.6 mph SW7.4 kmh SW 11.5 mph18.5 kmh 30.25 in1024.4 mb - 0.00 in0.0 mm 0.01 in0.3 mm
11:40 AM 50.4°F10.2°C 44.5°F6.9°C 80% 2.3 mph SW3.7 kmh SW 6.9 mph11.1 kmh 30.25 in1024.4 mb - 0.00 in0.0 mm 0.01 in0.3 mm
11:50 AM 50.7°F10.4°C 44.4°F6.9°C 79% 5.8 mph SW9.3 kmh SW 11.5 mph18.5 kmh 30.25 in1024.4 mb - 0.00 in0.0 mm 0.01 in0.3 mm
12:00 PM 50.9°F10.5°C 44.3°F6.8°C 78% 1.2 mph SW1.9 kmh SW 11.5 mph18.5 kmh 30.24 in1024.0 mb - 0.00 in0.0 mm 0.01 in0.3 mm
12:10 PM 51.1°F10.6°C 44.1°F6.7°C 77% Calm Calm 1.2 mph1.9 kmh 30.24 in1024.0 mb - 0.00 in0.0 mm 0.01 in0.3 mm
12:20 PM 51.2°F10.7°C 43.9°F6.6°C 76% Calm Calm -- 30.23 in1023.7 mb - 0.00 in0.0 mm 0.01 in0.3 mm
12:30 PM 51.3°F10.7°C 44.0°F6.7°C 76% Calm Calm -- 30.23 in1023.7 mb - 0.00 in0.0 mm 0.01 in0.3 mm
12:40 PM 51.5°F10.8°C 44.2°F6.8°C 76% Calm Calm -- 30.22 in1023.4 mb - 0.00 in0.0 mm 0.01 in0.3 mm
12:50 PM 51.8°F11.0°C 44.5°F6.9°C 76% 2.3 mph SW3.7 kmh SW 3.5 mph5.6 kmh 30.22 in1023.4 mb - 0.00 in0.0 mm 0.01 in0.3 mm
01:00 PM 52.1°F11.2°C 44.4°F6.9°C 75% 3.5 mph SW5.6 kmh SW 8.1 mph13.0 kmh 30.22 in1023.4 mb - 0.00 in0.0 mm 0.01 in0.3 mm
01:10 PM 52.4°F11.3°C 44.4°F6.9°C 74% 4.6 mph SW7.4 kmh SW 11.5 mph18.5 kmh 30.22 in1023.4 mb - 0.00 in0.0 mm 0.01 in0.3 mm
01:20 PM 52.4°F11.3°C 44.4°F6.9°C 74% 3.5 mph SW5.6 kmh SW 4.6 mph7.4 kmh 30.22 in1023.4 mb - 0.00 in0.0 mm 0.01 in0.3 mm
01:30 PM 52.5°F11.4°C 44.4°F6.9°C 74% 2.3 mph SW3.7 kmh SW 9.2 mph14.8 kmh 30.22 in1023.4 mb - 0.00 in0.0 mm 0.01 in0.3 mm
01:40 PM 52.4°F11.3°C 44.4°F6.9°C 74% 3.5 mph SW5.6 kmh SW 15.0 mph24.1 kmh 30.21 in1023.0 mb - 0.00 in0.0 mm 0.01 in0.3 mm
01:50 PM 52.3°F11.3°C 44.3°F6.8°C 74% 3.5 mph SW5.6 kmh SW 6.9 mph11.1 kmh 30.21 in1023.0 mb - 0.01 in0.3 mm 0.02 in0.5 mm
02:00 PM 52.3°F11.3°C 44.6°F7.0°C 75% 1.2 mph SW1.9 kmh SW 6.9 mph11.1 kmh 30.21 in1023.0 mb - 0.00 in0.0 mm 0.02 in0.5 mm
02:10 PM 52.3°F11.3°C 44.6°F7.0°C 75% 8.1 mph SW13.0 kmh SW 11.5 mph18.5 kmh 30.21 in1023.0 mb - 0.00 in0.0 mm 0.02 in0.5 mm
02:20 PM 52.3°F11.3°C 44.6°F7.0°C 75% 5.8 mph SW9.3 kmh SW 12.7 mph20.4 kmh 30.21 in1023.0 mb - 0.00 in0.0 mm 0.02 in0.5 mm
02:30 PM 52.4°F11.3°C 44.7°F7.1°C 75% 3.5 mph SSW5.6 kmh SSW 6.9 mph11.1 kmh 30.21 in1023.0 mb - 0.00 in0.0 mm 0.02 in0.5 mm
02:40 PM 52.5°F11.4°C 44.8°F7.1°C 75% 1.2 mph SW1.9 kmh SW 5.8 mph9.3 kmh 30.22 in1023.4 mb - 0.00 in0.0 mm 0.02 in0.5 mm
02:50 PM 52.6°F11.4°C 44.9°F7.2°C 75% 1.2 mph SW1.9 kmh SW 6.9 mph11.1 kmh 30.22 in1023.4 mb - 0.00 in0.0 mm 0.02 in0.5 mm
03:00 PM 52.8°F11.6°C 44.8°F7.1°C 74% 2.3 mph WSW3.7 kmh WSW 4.6 mph7.4 kmh 30.22 in1023.4 mb - 0.00 in0.0 mm 0.02 in0.5 mm
03:10 PM 53.1°F11.7°C 45.0°F7.2°C 74% 2.3 mph SW3.7 kmh SW 11.5 mph18.5 kmh 30.22 in1023.4 mb - 0.00 in0.0 mm 0.02 in0.5 mm
03:20 PM 53.1°F11.7°C 45.1°F7.3°C 74% Calm Calm -- 30.22 in1023.4 mb - 0.00 in0.0 mm 0.02 in0.5 mm
03:30 PM 53.2°F11.8°C 44.8°F7.1°C 73% 1.2 mph SW1.9 kmh SW 6.9 mph11.1 kmh 30.22 in1023.4 mb - 0.00 in0.0 mm 0.02 in0.5 mm
03:40 PM 53.2°F11.8°C 44.8°F7.1°C 73% Calm Calm -- 30.22 in1023.4 mb - 0.00 in0.0 mm 0.02 in0.5 mm
03:50 PM 53.2°F11.8°C 44.8°F7.1°C 73% 1.2 mph SW1.9 kmh SW 9.2 mph14.8 kmh 30.22 in1023.4 mb - 0.00 in0.0 mm 0.02 in0.5 mm
04:00 PM 53.3°F11.8°C 44.9°F7.2°C 73% Calm Calm -- 30.22 in1023.4 mb - 0.00 in0.0 mm 0.02 in0.5 mm
04:10 PM 53.3°F11.8°C 44.9°F7.2°C 73% Calm Calm -- 30.22 in1023.4 mb - 0.00 in0.0 mm 0.02 in0.5 mm
04:20 PM 53.2°F11.8°C 44.8°F7.1°C 73% Calm Calm -- 30.22 in1023.4 mb - 0.00 in0.0 mm 0.02 in0.5 mm
04:30 PM 53.2°F11.8°C 44.8°F7.1°C 73% 1.2 mph SW1.9 kmh SW 4.6 mph7.4 kmh 30.22 in1023.4 mb - 0.00 in0.0 mm 0.02 in0.5 mm
04:40 PM 53.1°F11.7°C 44.7°F7.1°C 73% Calm Calm -- 30.22 in1023.4 mb - 0.00 in0.0 mm 0.02 in0.5 mm
04:50 PM 53.0°F11.7°C 44.6°F7.0°C 73% Calm Calm -- 30.22 in1023.4 mb - 0.00 in0.0 mm 0.02 in0.5 mm
05:00 PM 53.0°F11.7°C 44.6°F7.0°C 73% Calm Calm -- 30.22 in1023.4 mb - 0.00 in0.0 mm 0.02 in0.5 mm
05:10 PM 52.9°F11.6°C 44.5°F6.9°C 73% Calm Calm -- 30.22 in1023.4 mb - 0.00 in0.0 mm 0.02 in0.5 mm
05:20 PM 52.8°F11.6°C 44.4°F6.9°C 73% Calm Calm -- 30.22 in1023.4 mb - 0.00 in0.0 mm 0.02 in0.5 mm
05:30 PM 52.7°F11.5°C 44.3°F6.8°C 73% Calm Calm -- 30.22 in1023.4 mb - 0.00 in0.0 mm 0.02 in0.5 mm
05:40 PM 52.6°F11.4°C 44.2°F6.8°C 73% Calm Calm -- 30.22 in1023.4 mb - 0.00 in0.0 mm 0.02 in0.5 mm
05:50 PM 52.4°F11.3°C 44.0°F6.7°C 73% Calm Calm -- 30.23 in1023.7 mb - 0.00 in0.0 mm 0.02 in0.5 mm
06:00 PM 52.3°F11.3°C 44.3°F6.8°C 74% Calm Calm -- 30.23 in1023.7 mb - 0.00 in0.0 mm 0.02 in0.5 mm
06:10 PM 52.2°F11.2°C 44.2°F6.8°C 74% Calm Calm -- 30.23 in1023.7 mb - 0.00 in0.0 mm 0.02 in0.5 mm
06:20 PM 52.2°F11.2°C 44.5°F6.9°C 75% Calm Calm -- 30.23 in1023.7 mb - 0.00 in0.0 mm 0.02 in0.5 mm
06:30 PM 52.2°F11.2°C 44.9°F7.2°C 76% Calm Calm -- 30.23 in1023.7 mb - 0.00 in0.0 mm 0.02 in0.5 mm
06:40 PM 52.1°F11.2°C 44.8°F7.1°C 76% Calm Calm -- 30.24 in1024.0 mb - 0.00 in0.0 mm 0.02 in0.5 mm
06:50 PM 52.1°F11.2°C 44.7°F7.1°C 76% Calm Calm -- 30.24 in1024.0 mb - 0.00 in0.0 mm 0.02 in0.5 mm
07:00 PM 52.0°F11.1°C 44.6°F7.0°C 76% Calm Calm -- 30.24 in1024.0 mb - 0.00 in0.0 mm 0.02 in0.5 mm
07:10 PM 51.8°F11.0°C 44.5°F6.9°C 76% Calm Calm -- 30.24 in1024.0 mb - 0.00 in0.0 mm 0.02 in0.5 mm
07:20 PM 51.7°F10.9°C 44.4°F6.9°C 76% Calm Calm -- 30.24 in1024.0 mb - 0.00 in0.0 mm 0.02 in0.5 mm
07:30 PM 51.6°F10.9°C 44.3°F6.8°C 76% Calm Calm -- 30.24 in1024.0 mb - 0.00 in0.0 mm 0.02 in0.5 mm
07:40 PM 51.5°F10.8°C 44.5°F6.9°C 77% Calm Calm -- 30.24 in1024.0 mb - 0.00 in0.0 mm 0.02 in0.5 mm
07:50 PM 51.3°F10.7°C 44.3°F6.8°C 77% Calm Calm -- 30.24 in1024.0 mb - 0.00 in0.0 mm 0.02 in0.5 mm
08:00 PM 51.2°F10.7°C 44.2°F6.8°C 77% Calm Calm -- 30.24 in1024.0 mb - 0.00 in0.0 mm 0.02 in0.5 mm
08:10 PM 51.1°F10.6°C 44.5°F6.9°C 78% Calm Calm -- 30.24 in1024.0 mb - 0.00 in0.0 mm 0.02 in0.5 mm
08:20 PM 51.0°F10.6°C 44.4°F6.9°C 78% Calm Calm -- 30.24 in1024.0 mb - 0.00 in0.0 mm 0.02 in0.5 mm
08:30 PM 50.9°F10.5°C 43.9°F6.6°C 77% Calm Calm -- 30.23 in1023.7 mb - 0.00 in0.0 mm 0.02 in0.5 mm
08:40 PM 50.8°F10.4°C 44.2°F6.8°C 78% Calm Calm -- 30.23 in1023.7 mb - 0.00 in0.0 mm 0.02 in0.5 mm
08:50 PM 50.7°F10.4°C 44.1°F6.7°C 78% Calm Calm -- 30.23 in1023.7 mb - 0.00 in0.0 mm 0.02 in0.5 mm
09:00 PM 50.5°F10.3°C 43.9°F6.6°C 78% Calm Calm -- 30.23 in1023.7 mb - 0.00 in0.0 mm 0.02 in0.5 mm
09:10 PM 50.4°F10.2°C 43.8°F6.6°C 78% Calm Calm -- 30.23 in1023.7 mb - 0.00 in0.0 mm 0.02 in0.5 mm
09:20 PM 50.3°F10.2°C 43.7°F6.5°C 78% Calm Calm -- 30.24 in1024.0 mb - 0.00 in0.0 mm 0.02 in0.5 mm
09:30 PM 50.1°F10.1°C 43.5°F6.4°C 78% Calm Calm -- 30.23 in1023.7 mb - 0.00 in0.0 mm 0.02 in0.5 mm
09:40 PM 50.0°F10.0°C 43.4°F6.3°C 78% Calm Calm -- 30.23 in1023.7 mb - 0.00 in0.0 mm 0.02 in0.5 mm
09:50 PM 49.9°F9.9°C 43.6°F6.4°C 79% Calm Calm -- 30.23 in1023.7 mb - 0.00 in0.0 mm 0.02 in0.5 mm
10:00 PM 49.8°F9.9°C 43.5°F6.4°C 79% Calm Calm -- 30.23 in1023.7 mb - 0.00 in0.0 mm 0.02 in0.5 mm
10:10 PM 49.6°F9.8°C 43.4°F6.3°C 79% Calm Calm -- 30.23 in1023.7 mb - 0.00 in0.0 mm 0.02 in0.5 mm
10:20 PM 49.5°F9.7°C 43.3°F6.3°C 79% Calm Calm -- 30.23 in1023.7 mb - 0.00 in0.0 mm 0.02 in0.5 mm
10:30 PM 49.3°F9.6°C 43.1°F6.2°C 79% Calm Calm -- 30.23 in1023.7 mb - 0.00 in0.0 mm 0.02 in0.5 mm
10:40 PM 49.2°F9.6°C 43.0°F6.1°C 79% Calm Calm -- 30.23 in1023.7 mb - 0.00 in0.0 mm 0.02 in0.5 mm
10:50 PM 49.1°F9.5°C 43.2°F6.2°C 80% Calm Calm -- 30.23 in1023.7 mb - 0.00 in0.0 mm 0.02 in0.5 mm
11:00 PM 48.9°F9.4°C 43.0°F6.1°C 80% Calm Calm -- 30.23 in1023.7 mb - 0.00 in0.0 mm 0.02 in0.5 mm
11:10 PM 48.7°F9.3°C 42.8°F6.0°C 80% Calm Calm -- 30.22 in1023.4 mb - 0.00 in0.0 mm 0.02 in0.5 mm
11:20 PM 48.5°F9.2°C 42.9°F6.1°C 81% Calm Calm -- 30.22 in1023.4 mb - 0.00 in0.0 mm 0.02 in0.5 mm
11:30 PM 48.3°F9.1°C 42.7°F5.9°C 81% Calm Calm -- 30.22 in1023.4 mb - 0.00 in0.0 mm 0.02 in0.5 mm
11:40 PM 48.1°F8.9°C 42.5°F5.8°C 81% Calm Calm -- 30.22 in1023.4 mb - 0.00 in0.0 mm 0.02 in0.5 mm
11:50 PM 47.9°F8.8°C 42.7°F5.9°C 82% Calm Calm -- 30.22 in1023.4 mb - 0.00 in0.0 mm 0.02 in0.5 mm